createdAt,value
2017-09-15T00:01:34.738Z,12.93
2017-09-15T00:04:03.070Z,13.80
2017-09-15T00:06:31.422Z,13.13
2017-09-15T00:08:59.790Z,26.60
2017-09-15T00:11:28.178Z,16.53
2017-09-15T00:13:56.575Z,20.77
2017-09-15T00:16:24.934Z,15.63
2017-09-15T00:18:53.362Z,14.87
2017-09-15T00:21:21.711Z,16.77
2017-09-15T00:23:50.149Z,11.90
2017-09-15T00:26:18.529Z,11.13
2017-09-15T00:28:46.854Z,9.30
2017-09-15T00:31:15.203Z,9.23
2017-09-15T00:33:43.566Z,9.97
2017-09-15T00:36:11.935Z,11.20
2017-09-15T00:38:40.899Z,10.07
2017-09-15T00:41:09.322Z,14.63
2017-09-15T00:43:37.702Z,12.27
2017-09-15T00:46:06.037Z,11.20
2017-09-15T00:48:34.373Z,11.23
2017-09-15T00:51:02.732Z,11.67
2017-09-15T00:53:31.071Z,16.93
2017-09-15T00:55:59.534Z,16.23
2017-09-15T00:58:27.866Z,14.40
2017-09-15T01:00:56.198Z,18.30
2017-09-15T01:03:24.554Z,15.30
2017-09-15T01:05:52.884Z,20.77
2017-09-15T01:08:21.266Z,16.43
2017-09-15T01:10:49.589Z,14.63
2017-09-15T01:13:17.926Z,13.20
2017-09-15T01:15:46.264Z,12.50
2017-09-15T01:18:14.650Z,15.33
2017-09-15T01:20:43.373Z,14.70
2017-09-15T01:23:11.834Z,12.33
2017-09-15T01:25:40.246Z,17.40
2017-09-15T01:28:08.565Z,25.23
2017-09-15T01:30:37.014Z,18.30
2017-09-15T01:33:05.413Z,9.77
2017-09-15T01:35:33.802Z,18.43
2017-09-15T01:38:02.182Z,14.87
2017-09-15T01:40:30.518Z,19.87
2017-09-15T01:42:58.854Z,19.47
2017-09-15T01:45:27.258Z,19.53
2017-09-15T01:47:55.682Z,14.20
2017-09-15T01:50:24.011Z,20.00
2017-09-15T01:52:52.350Z,13.67
2017-09-15T01:55:20.706Z,14.93
2017-09-15T01:57:49.046Z,13.77
2017-09-15T02:00:17.409Z,28.60
2017-09-15T02:02:45.742Z,15.07
2017-09-15T02:05:14.080Z,19.80
2017-09-15T02:07:42.431Z,17.87
2017-09-15T02:10:10.898Z,15.53
2017-09-15T02:12:39.225Z,18.30
2017-09-15T02:15:07.575Z,16.40
2017-09-15T02:17:35.938Z,25.40
2017-09-15T02:20:04.289Z,13.50
2017-09-15T02:22:32.627Z,10.90
2017-09-15T02:25:01.042Z,19.27
2017-09-15T02:27:29.503Z,22.27
2017-09-15T02:29:57.899Z,12.43
2017-09-15T02:32:26.255Z,15.10
2017-09-15T02:34:54.610Z,17.90
2017-09-15T02:37:22.997Z,20.40
2017-09-15T02:39:51.350Z,18.03
2017-09-15T02:42:19.714Z,13.63
2017-09-15T02:44:48.075Z,21.03
2017-09-15T02:47:16.438Z,14.23
2017-09-15T02:49:45.222Z,13.27
2017-09-15T02:52:13.582Z,16.37
2017-09-15T02:54:41.922Z,10.40
2017-09-15T02:57:10.303Z,11.30
2017-09-15T02:59:38.646Z,13.30
2017-09-15T03:02:07.018Z,20.80
2017-09-15T03:04:35.378Z,12.10
2017-09-15T03:07:03.719Z,12.50
2017-09-15T03:09:32.086Z,15.20
2017-09-15T03:12:00.406Z,8.73
2017-09-15T03:14:28.767Z,17.87
2017-09-15T03:16:57.123Z,9.53
2017-09-15T03:19:25.455Z,6.87
2017-09-15T03:21:53.822Z,9.93
2017-09-15T03:24:22.157Z,3.97
2017-09-15T03:26:50.483Z,3.70
2017-09-15T03:29:18.839Z,4.30
2017-09-15T03:31:47.174Z,4.20
2017-09-15T03:34:15.555Z,6.53
2017-09-15T03:36:43.878Z,2.80
2017-09-15T03:39:12.438Z,8.50
2017-09-15T03:41:40.771Z,5.23
2017-09-15T03:44:09.230Z,15.73
2017-09-15T03:46:37.559Z,7.90
2017-09-15T03:49:05.899Z,14.37
2017-09-15T03:51:34.265Z,15.93
2017-09-15T03:54:02.595Z,14.87
2017-09-15T03:56:30.959Z,17.00
2017-09-15T03:58:59.358Z,13.83
2017-09-15T04:01:27.755Z,17.63
2017-09-15T04:03:56.147Z,20.40
2017-09-15T04:06:24.483Z,19.20
2017-09-15T04:08:52.810Z,16.97
2017-09-15T04:11:21.163Z,14.70
2017-09-15T04:13:49.519Z,16.83
2017-09-15T04:16:17.853Z,14.93
2017-09-15T04:18:46.259Z,29.33
2017-09-15T04:21:14.684Z,19.33
2017-09-15T04:23:43.099Z,20.63
2017-09-15T04:26:11.463Z,16.90
2017-09-15T04:28:40.275Z,22.10
2017-09-15T04:31:08.638Z,21.30
2017-09-15T04:33:36.979Z,22.50
2017-09-15T04:36:05.319Z,23.80
2017-09-15T04:38:33.726Z,22.37
2017-09-15T04:41:02.115Z,25.77
2017-09-15T04:43:30.514Z,22.20
2017-09-15T04:45:58.846Z,22.30
2017-09-15T04:48:27.190Z,21.60
2017-09-15T04:50:55.695Z,27.40
2017-09-15T04:53:24.037Z,18.30
2017-09-15T04:55:52.387Z,22.27
2017-09-15T04:58:20.735Z,21.70
2017-09-15T05:00:49.099Z,21.00
2017-09-15T05:03:17.434Z,27.53
2017-09-15T05:05:46.171Z,20.87
2017-09-15T05:08:14.536Z,20.93
2017-09-15T05:10:42.864Z,20.23
2017-09-15T05:13:11.222Z,16.83
2017-09-15T05:15:39.562Z,18.13
2017-09-15T05:18:07.929Z,19.43
2017-09-15T05:20:36.259Z,18.70
2017-09-15T05:23:04.667Z,22.93
2017-09-15T05:25:33.006Z,25.57
2017-09-15T05:28:01.375Z,18.13
2017-09-15T05:30:29.715Z,21.17
2017-09-15T05:32:58.082Z,18.10
2017-09-15T05:35:26.462Z,18.77
2017-09-15T05:37:54.798Z,15.10
2017-09-15T05:40:23.170Z,18.87
2017-09-15T05:42:51.668Z,16.67
2017-09-15T05:45:20.064Z,24.10
2017-09-15T05:47:48.403Z,16.17
2017-09-15T05:50:16.742Z,19.27
2017-09-15T05:52:45.091Z,20.10
2017-09-15T05:55:13.475Z,16.90
2017-09-15T05:57:41.860Z,17.40
2017-09-15T06:00:10.201Z,18.87
2017-09-15T06:02:38.583Z,18.90
2017-09-15T06:05:06.922Z,17.00
2017-09-15T06:07:35.294Z,18.27
2017-09-15T06:10:03.631Z,17.27
2017-09-15T06:12:32.954Z,20.20
2017-09-15T06:15:01.301Z,18.50
2017-09-15T06:17:29.630Z,11.57
2017-09-15T06:19:58.007Z,11.20
2017-09-15T06:22:26.339Z,10.60
2017-09-15T06:24:54.699Z,26.43
2017-09-15T06:27:23.034Z,13.93
2017-09-15T06:29:51.370Z,10.27
2017-09-15T06:32:19.703Z,9.80
2017-09-15T06:34:48.062Z,11.80
2017-09-15T06:37:16.389Z,8.77
2017-09-15T06:39:44.751Z,14.37
2017-09-15T06:42:13.112Z,12.23
2017-09-15T06:44:41.434Z,7.23
2017-09-15T06:47:09.792Z,9.07
2017-09-15T06:49:38.123Z,14.67
2017-09-15T06:52:06.483Z,18.40
2017-09-15T06:54:34.812Z,10.53
2017-09-15T06:57:03.170Z,11.80
2017-09-15T06:59:31.510Z,10.87
2017-09-15T07:01:59.863Z,8.93
2017-09-15T07:04:28.203Z,11.93
2017-09-15T07:06:56.558Z,10.03
2017-09-15T07:09:24.947Z,11.07
2017-09-15T07:11:53.279Z,9.20
2017-09-15T07:14:21.631Z,9.37
2017-09-15T07:16:49.979Z,10.80
2017-09-15T07:19:18.342Z,11.60
2017-09-15T07:21:46.671Z,9.83
2017-09-15T07:24:15.011Z,11.90
2017-09-15T07:26:43.368Z,7.13
2017-09-15T07:29:11.698Z,9.27
2017-09-15T07:31:40.078Z,10.60
2017-09-15T07:34:08.415Z,9.00
2017-09-15T07:36:36.786Z,7.87
2017-09-15T07:39:05.122Z,10.60
2017-09-15T07:41:33.465Z,7.90
2017-09-15T07:44:01.807Z,10.17
2017-09-15T07:46:30.146Z,6.13
2017-09-15T07:48:58.506Z,5.27
2017-09-15T07:51:26.910Z,6.03
2017-09-15T07:53:55.379Z,3.67
2017-09-15T07:56:23.711Z,5.93
2017-09-15T07:58:52.047Z,4.90
2017-09-15T08:01:20.415Z,7.10
2017-09-15T08:03:49.746Z,9.13
2017-09-15T08:09:37.698Z,6.93
2017-09-15T08:28:03.081Z,5.73
2017-09-15T08:30:32.415Z,4.90
2017-09-15T08:33:04.754Z,3.60
2017-09-15T08:35:36.346Z,3.27
2017-09-15T08:38:06.658Z,3.20
2017-09-15T08:40:38.634Z,4.53
2017-09-15T08:43:08.282Z,6.23
2017-09-15T08:45:37.299Z,4.43
2017-09-15T08:48:05.623Z,7.17
2017-09-15T08:50:33.962Z,4.50
2017-09-15T08:53:02.302Z,2.70
2017-09-15T08:55:30.663Z,4.87
2017-09-15T08:57:58.999Z,1.70
2017-09-15T09:00:27.366Z,4.90
2017-09-15T09:02:55.787Z,2.77
2017-09-15T09:05:24.189Z,5.87
2017-09-15T09:07:52.581Z,5.07
2017-09-15T09:10:20.910Z,1.80
2017-09-15T09:12:49.242Z,6.90
2017-09-15T09:15:17.575Z,4.40
2017-09-15T09:17:45.935Z,3.20
2017-09-15T09:20:14.302Z,4.07
2017-09-15T09:22:42.648Z,8.03
2017-09-15T09:25:10.979Z,4.73
2017-09-15T09:27:39.317Z,2.10
2017-09-15T09:30:07.663Z,4.97
2017-09-15T09:32:35.998Z,8.83
2017-09-15T09:35:04.395Z,2.47
2017-09-15T09:37:32.730Z,2.23
2017-09-15T09:40:01.065Z,3.47
2017-09-15T09:42:29.395Z,7.47
2017-09-15T09:44:57.739Z,6.37
2017-09-15T09:47:26.106Z,1.80
2017-09-15T09:49:54.470Z,2.70
2017-09-15T09:52:22.802Z,3.03
2017-09-15T09:54:51.134Z,3.30
2017-09-15T09:57:19.471Z,4.63
2017-09-15T09:59:47.802Z,3.57
2017-09-15T10:02:16.166Z,3.30
2017-09-15T10:04:44.498Z,4.87
2017-09-15T10:07:12.842Z,3.33
2017-09-15T10:09:41.174Z,1.87
2017-09-15T10:12:09.503Z,3.57
2017-09-15T10:14:37.859Z,6.47
2017-09-15T10:17:06.219Z,6.17
2017-09-15T10:19:34.562Z,3.30
2017-09-15T10:22:02.920Z,7.70
2017-09-15T10:24:31.274Z,3.27
2017-09-15T10:26:59.611Z,2.70
2017-09-15T10:29:27.967Z,6.00
2017-09-15T10:31:56.306Z,7.27
2017-09-15T10:34:24.675Z,4.67
2017-09-15T10:36:53.006Z,2.70
2017-09-15T10:39:21.367Z,3.37
2017-09-15T10:41:49.702Z,4.03
2017-09-15T10:44:18.039Z,3.00
2017-09-15T10:46:46.379Z,5.53
2017-09-15T10:49:14.707Z,2.07
2017-09-15T10:51:43.066Z,6.13
2017-09-15T10:54:11.425Z,3.67
2017-09-15T10:56:39.787Z,6.83
2017-09-15T11:02:13.937Z,1.90
2017-09-15T11:04:42.263Z,3.50
2017-09-15T11:07:10.595Z,6.27
2017-09-15T11:09:38.959Z,1.67
2017-09-15T11:12:07.299Z,1.27
2017-09-15T11:14:35.626Z,2.80
2017-09-15T11:17:03.961Z,3.27
2017-09-15T11:19:32.291Z,4.47
2017-09-15T11:22:00.619Z,5.53
2017-09-15T11:24:28.951Z,2.00
2017-09-15T11:26:57.286Z,2.70
2017-09-15T11:29:25.659Z,3.13
2017-09-15T11:31:53.982Z,4.00
2017-09-15T11:34:22.336Z,2.03
2017-09-15T11:36:50.662Z,1.77
2017-09-15T11:39:18.998Z,1.50
2017-09-15T11:41:47.322Z,3.03
2017-09-15T11:44:15.659Z,3.60
2017-09-15T11:46:43.986Z,5.30
2017-09-15T11:49:12.419Z,1.87
2017-09-15T11:51:40.759Z,2.80
2017-09-15T11:54:09.091Z,2.33
2017-09-15T11:56:37.419Z,3.53
2017-09-15T11:59:05.752Z,2.40
2017-09-15T12:01:34.094Z,3.70
2017-09-15T12:04:02.426Z,3.07
2017-09-15T12:06:30.764Z,4.10
2017-09-15T12:08:59.122Z,3.07
2017-09-15T12:11:27.499Z,4.77
2017-09-15T12:13:55.834Z,3.10
2017-09-15T12:16:24.172Z,3.53
2017-09-15T12:18:52.518Z,5.10
2017-09-15T12:21:20.886Z,3.90
2017-09-15T12:23:49.221Z,4.13
2017-09-15T12:26:17.581Z,1.73
2017-09-15T12:28:46.215Z,5.30
2017-09-15T12:31:14.551Z,2.00
2017-09-15T12:33:42.915Z,4.03
2017-09-15T12:36:11.252Z,2.00
2017-09-15T12:38:39.586Z,3.90
2017-09-15T12:41:07.946Z,3.00
2017-09-15T12:43:36.275Z,3.37
2017-09-15T12:46:04.607Z,1.80
2017-09-15T12:48:32.934Z,2.50
2017-09-15T12:51:01.275Z,2.67
2017-09-15T12:53:29.619Z,3.30
2017-09-15T12:55:57.949Z,2.63
2017-09-15T12:58:26.275Z,2.17
2017-09-15T13:00:54.612Z,1.90
2017-09-15T13:03:22.938Z,1.33
2017-09-15T13:05:51.275Z,3.27
2017-09-15T13:08:19.646Z,7.13
2017-09-15T13:10:47.971Z,4.60
2017-09-15T13:13:16.306Z,1.23
2017-09-15T13:15:44.662Z,2.20
2017-09-15T13:18:12.997Z,3.17
2017-09-15T13:20:41.353Z,5.93
2017-09-15T13:23:09.690Z,3.10
2017-09-15T13:25:38.019Z,6.13
2017-09-15T13:28:06.391Z,3.10
2017-09-15T13:30:34.743Z,5.10
2017-09-15T13:33:03.075Z,1.30
2017-09-15T13:35:31.444Z,2.83
2017-09-15T13:37:59.775Z,3.10
2017-09-15T13:40:28.111Z,3.57
2017-09-15T13:42:56.478Z,2.10
2017-09-15T13:45:24.839Z,3.23
2017-09-15T13:47:53.214Z,3.17
2017-09-15T13:50:21.575Z,1.83
2017-09-15T13:52:49.906Z,2.57
2017-09-15T13:55:18.242Z,1.67
2017-09-15T13:57:46.594Z,3.40
2017-09-15T14:00:14.966Z,1.90
2017-09-15T14:02:43.326Z,6.20
2017-09-15T14:05:11.686Z,2.00
2017-09-15T14:07:40.025Z,2.30
2017-09-15T14:10:08.354Z,3.37
2017-09-15T14:12:36.714Z,1.00
2017-09-15T14:15:05.059Z,1.33
2017-09-15T14:17:33.378Z,2.60
2017-09-15T14:20:01.744Z,3.47
2017-09-15T14:22:30.071Z,2.10
2017-09-15T14:24:58.436Z,1.47
2017-09-15T14:27:26.790Z,1.13
2017-09-15T14:29:55.164Z,0.90
2017-09-15T14:32:23.518Z,2.13
2017-09-15T14:34:51.913Z,1.27
2017-09-15T14:37:20.243Z,1.57
2017-09-15T14:39:48.601Z,1.10
2017-09-15T14:42:16.976Z,3.23
2017-09-15T14:44:45.338Z,2.30
2017-09-15T14:47:13.704Z,1.30
2017-09-15T14:49:42.035Z,1.80
2017-09-15T14:52:10.371Z,3.03
2017-09-15T14:54:38.702Z,3.07
2017-09-15T14:57:07.040Z,2.07
2017-09-15T14:59:35.425Z,3.20
2017-09-15T15:02:03.767Z,1.70
2017-09-15T15:04:32.300Z,2.10
2017-09-15T15:07:00.676Z,4.07
2017-09-15T15:09:29.003Z,4.50
2017-09-15T15:11:57.370Z,1.90
2017-09-15T15:14:25.707Z,1.87
2017-09-15T15:16:54.063Z,1.63
2017-09-15T15:19:22.391Z,1.53
2017-09-15T15:21:50.758Z,3.97
2017-09-15T15:24:19.096Z,2.73
2017-09-15T15:26:47.495Z,3.30
2017-09-15T15:29:15.869Z,4.73
2017-09-15T15:31:44.194Z,5.73
2017-09-15T15:34:12.527Z,1.53
2017-09-15T15:36:40.894Z,3.00
2017-09-15T15:39:09.218Z,1.67
2017-09-15T15:41:37.583Z,3.13
2017-09-15T15:44:05.947Z,3.83
2017-09-15T15:46:34.274Z,4.53
2017-09-15T15:49:02.741Z,1.73
2017-09-15T15:51:31.076Z,2.43
2017-09-15T15:53:59.406Z,2.47
2017-09-15T15:56:27.874Z,1.37
2017-09-15T15:58:56.195Z,4.43
2017-09-15T16:01:24.531Z,3.10
2017-09-15T16:03:52.894Z,1.20
2017-09-15T16:06:21.228Z,3.27
2017-09-15T16:08:49.607Z,1.10
2017-09-15T16:11:17.942Z,2.40
2017-09-15T16:13:46.280Z,1.00
2017-09-15T16:16:14.611Z,3.87
2017-09-15T16:18:42.947Z,1.10
2017-09-15T16:21:11.309Z,1.07
2017-09-15T16:23:39.642Z,3.40
2017-09-15T16:26:08.005Z,3.67
2017-09-15T16:28:36.339Z,1.37
2017-09-15T16:31:04.999Z,2.87
2017-09-15T16:33:33.331Z,2.53
2017-09-15T16:36:01.679Z,4.20
2017-09-15T16:38:35.531Z,1.30
2017-09-15T16:41:09.472Z,1.40
2017-09-15T16:43:43.447Z,2.13
2017-09-15T16:46:17.278Z,2.63
2017-09-15T16:48:51.070Z,2.23
2017-09-15T16:51:19.448Z,2.77
2017-09-15T16:53:47.811Z,3.00
2017-09-15T16:56:16.140Z,2.80
2017-09-15T16:58:44.514Z,2.37
2017-09-15T17:01:12.847Z,3.90
2017-09-15T17:03:41.202Z,2.57
2017-09-15T17:06:09.536Z,2.63
2017-09-15T17:08:37.853Z,5.50
2017-09-15T17:11:06.183Z,2.60
2017-09-15T17:13:34.507Z,6.00
2017-09-15T17:16:02.859Z,1.97
2017-09-15T17:18:31.183Z,2.40
2017-09-15T17:20:59.510Z,3.80
2017-09-15T17:23:27.845Z,3.30
2017-09-15T17:25:56.206Z,5.47
2017-09-15T17:28:24.530Z,8.67
2017-09-15T17:30:53.281Z,6.03
2017-09-15T17:33:21.619Z,4.00
2017-09-15T17:35:49.942Z,15.00
2017-09-15T17:38:18.271Z,7.97
2017-09-15T17:40:46.599Z,5.13
2017-09-15T17:43:14.928Z,5.00
2017-09-15T17:45:43.279Z,5.60
2017-09-15T17:48:11.611Z,3.23
2017-09-15T17:50:40.281Z,6.87
2017-09-15T17:53:08.606Z,8.80
2017-09-15T17:55:36.930Z,5.07
2017-09-15T17:58:05.291Z,8.13
2017-09-15T18:00:33.942Z,6.77
2017-09-15T18:03:02.314Z,18.70
2017-09-15T18:05:30.655Z,4.33
2017-09-15T18:07:59.002Z,6.40
2017-09-15T18:10:27.338Z,3.67
2017-09-15T18:12:55.671Z,3.80
2017-09-15T18:15:24.031Z,2.40
2017-09-15T18:17:52.388Z,3.20
2017-09-15T18:20:20.738Z,3.63
2017-09-15T18:22:49.098Z,4.47
2017-09-15T18:25:17.423Z,3.73
2017-09-15T18:27:45.862Z,3.07
2017-09-15T18:30:14.188Z,2.93
2017-09-15T18:32:42.530Z,2.40
2017-09-15T18:35:10.902Z,3.00
2017-09-15T18:37:39.236Z,3.90
2017-09-15T18:40:07.562Z,8.83
2017-09-15T18:42:35.886Z,5.43
2017-09-15T18:45:04.259Z,6.40
2017-09-15T18:47:32.806Z,3.53
2017-09-15T18:50:01.151Z,6.60
2017-09-15T18:52:29.504Z,4.77
2017-09-15T18:54:57.863Z,4.40
2017-09-15T18:57:26.527Z,11.83
2017-09-15T18:59:54.886Z,4.47
2017-09-15T19:02:23.207Z,2.90
2017-09-15T19:04:51.537Z,3.03
2017-09-15T19:07:19.885Z,3.10
2017-09-15T19:09:48.219Z,2.50
2017-09-15T19:12:16.573Z,1.80
2017-09-15T19:14:44.905Z,1.93
2017-09-15T19:17:13.260Z,1.90
2017-09-15T19:19:41.588Z,4.43
2017-09-15T19:22:09.923Z,2.53
2017-09-15T19:24:38.250Z,5.63
2017-09-15T19:27:06.570Z,4.33
2017-09-15T19:29:35.091Z,3.50
2017-09-15T19:32:03.416Z,2.70
2017-09-15T19:34:31.770Z,3.47
2017-09-15T19:37:00.099Z,3.63
2017-09-15T19:39:28.437Z,5.20
2017-09-15T19:41:56.783Z,3.40
2017-09-15T19:44:25.126Z,3.73
2017-09-15T19:46:53.734Z,4.80
2017-09-15T19:49:22.063Z,6.80
2017-09-15T19:51:50.391Z,7.97
2017-09-15T19:54:18.718Z,4.97
2017-09-15T19:56:47.046Z,3.27
2017-09-15T19:59:15.405Z,4.50
2017-09-15T20:01:43.726Z,3.30
2017-09-15T20:04:12.061Z,2.57
2017-09-15T20:06:40.439Z,3.70
2017-09-15T20:09:08.790Z,3.97
2017-09-15T20:11:37.123Z,3.73
2017-09-15T20:14:05.451Z,3.40
2017-09-15T20:16:33.819Z,5.97
2017-09-15T20:19:02.417Z,7.23
2017-09-15T20:21:30.750Z,6.50
2017-09-15T20:23:59.086Z,2.87
2017-09-15T20:26:27.411Z,3.00
2017-09-15T20:28:55.743Z,2.87
2017-09-15T20:31:24.095Z,3.10
2017-09-15T20:33:52.426Z,2.70
2017-09-15T20:36:20.896Z,3.63
2017-09-15T20:38:49.214Z,4.33
2017-09-15T20:41:17.550Z,6.40
2017-09-15T20:43:45.875Z,6.07
2017-09-15T20:46:14.234Z,5.70
2017-09-15T20:48:42.607Z,5.20
2017-09-15T20:51:10.963Z,9.60
2017-09-15T20:53:39.284Z,10.33
2017-09-15T20:56:07.652Z,9.13
2017-09-15T20:58:35.974Z,4.87
2017-09-15T21:01:04.306Z,4.03
2017-09-15T21:03:32.631Z,4.50
2017-09-15T21:06:00.987Z,7.27
2017-09-15T21:08:29.319Z,4.90
2017-09-15T21:10:57.652Z,6.10
2017-09-15T21:13:25.974Z,4.53
2017-09-15T21:15:54.327Z,5.53
2017-09-15T21:18:22.704Z,8.00
2017-09-15T21:20:51.086Z,6.63
2017-09-15T21:23:19.435Z,5.50
2017-09-15T21:25:47.794Z,7.20
2017-09-15T21:28:16.131Z,10.80
2017-09-15T21:30:44.499Z,12.53
2017-09-15T21:33:12.831Z,9.47
2017-09-15T21:35:41.163Z,11.30
2017-09-15T21:38:09.492Z,14.07
2017-09-15T21:40:37.848Z,16.27
2017-09-15T21:43:06.217Z,16.87
2017-09-15T21:45:34.558Z,14.80
2017-09-15T21:48:02.924Z,18.97
2017-09-15T21:50:31.328Z,15.50
2017-09-15T21:52:59.701Z,17.93
2017-09-15T21:55:28.107Z,29.33
2017-09-15T21:57:56.475Z,21.27
2017-09-15T22:00:24.886Z,16.00
2017-09-15T22:02:53.234Z,19.97
2017-09-15T22:05:22.023Z,22.60
2017-09-15T22:07:50.374Z,27.57
2017-09-15T22:10:18.714Z,19.13
2017-09-15T22:12:47.064Z,19.50
2017-09-15T22:15:15.440Z,20.13
2017-09-15T22:17:43.782Z,32.10
2017-09-15T22:20:12.155Z,21.23
2017-09-15T22:22:40.612Z,24.37
2017-09-15T22:25:08.950Z,22.63
2017-09-15T22:27:37.299Z,26.27
2017-09-15T22:30:05.647Z,24.80
2017-09-15T22:32:34.011Z,26.90
2017-09-15T22:35:02.347Z,27.97
2017-09-15T22:37:30.716Z,26.20
2017-09-15T22:39:59.190Z,26.67
2017-09-15T22:42:27.531Z,24.10
2017-09-15T22:44:55.872Z,21.70
2017-09-15T22:47:24.230Z,26.60
2017-09-15T22:49:52.607Z,25.27
2017-09-15T22:52:21.167Z,28.77
2017-09-15T22:54:49.507Z,28.73
2017-09-15T22:57:17.880Z,30.57
2017-09-15T22:59:46.614Z,33.80
2017-09-15T23:02:14.967Z,35.10
2017-09-15T23:04:43.375Z,31.77
2017-09-15T23:07:11.715Z,41.50
2017-09-15T23:09:40.095Z,41.10
2017-09-15T23:12:08.450Z,36.07
2017-09-15T23:14:36.791Z,33.70
2017-09-15T23:17:05.138Z,39.50
2017-09-15T23:19:33.482Z,28.77
2017-09-15T23:22:02.002Z,32.13
2017-09-15T23:24:30.399Z,35.80
2017-09-15T23:26:58.746Z,32.00
2017-09-15T23:29:27.179Z,32.40
2017-09-15T23:31:55.574Z,39.17
2017-09-15T23:34:23.967Z,38.10
2017-09-15T23:36:52.455Z,35.13
2017-09-15T23:39:20.794Z,34.23
2017-09-15T23:41:49.145Z,34.03
2017-09-15T23:44:17.486Z,35.27
2017-09-15T23:46:45.922Z,37.47
2017-09-15T23:49:14.310Z,47.17
2017-09-15T23:51:42.702Z,32.30
2017-09-15T23:54:11.124Z,34.40
2017-09-15T23:56:39.512Z,37.40
2017-09-15T23:59:07.855Z,34.83
